createdAt,value
2018-09-09T00:01:45.703Z,20.66
2018-09-09T00:04:15.342Z,20.70
2018-09-09T00:11:52.653Z,20.60
2018-09-09T00:14:26.574Z,20.66
2018-09-09T00:16:54.732Z,20.56
2018-09-09T00:22:00.984Z,20.48
2018-09-09T00:24:31.163Z,20.26
2018-09-09T00:29:32.889Z,20.22
2018-09-09T00:34:37.092Z,20.45
2018-09-09T00:37:05.012Z,20.43
2018-09-09T00:39:33.328Z,20.57
2018-09-09T00:42:05.016Z,20.63
2018-09-09T00:47:04.361Z,20.54
2018-09-09T01:02:19.351Z,20.42
2018-09-09T01:04:48.636Z,20.37
2018-09-09T01:09:51.790Z,20.33
2018-09-09T01:14:53.304Z,20.36
2018-09-09T01:17:25.435Z,20.27
2018-09-09T01:19:54.731Z,20.28
2018-09-09T01:22:24.545Z,20.24
2018-09-09T01:24:54.679Z,20.17
2018-09-09T01:29:58.738Z,20.23
2018-09-09T01:37:34.238Z,20.09
2018-09-09T01:40:03.347Z,20.12
2018-09-09T01:45:10.196Z,20.03
2018-09-09T01:50:20.667Z,19.95
2018-09-09T01:52:52.995Z,19.96
2018-09-09T01:55:22.155Z,19.86
2018-09-09T01:57:50.990Z,19.81
2018-09-09T02:00:20.039Z,19.95
2018-09-09T02:02:49.919Z,19.91
2018-09-09T02:07:51.362Z,19.77
2018-09-09T02:10:21.320Z,19.67
2018-09-09T02:12:50.086Z,19.68
2018-09-09T02:17:53.791Z,19.52
2018-09-09T02:28:07.295Z,19.85
2018-09-09T02:35:42.418Z,19.60
2018-09-09T02:43:20.062Z,19.54
2018-09-09T02:45:48.823Z,19.51
2018-09-09T02:50:53.231Z,19.53
2018-09-09T02:55:56.223Z,19.59
2018-09-09T03:03:32.154Z,19.38
2018-09-09T03:13:39.216Z,19.38
2018-09-09T03:16:12.504Z,19.21
2018-09-09T03:18:44.710Z,19.03
2018-09-09T03:21:14.105Z,18.87
2018-09-09T03:23:46.134Z,18.94
2018-09-09T03:28:46.651Z,18.95
2018-09-09T03:31:17.038Z,18.98
2018-09-09T03:33:43.953Z,18.89
2018-09-09T03:38:47.053Z,18.72
2018-09-09T03:41:14.885Z,18.91
2018-09-09T03:43:43.241Z,18.74
2018-09-09T03:46:16.260Z,18.74
2018-09-09T03:48:45.176Z,18.86
2018-09-09T03:51:14.942Z,18.76
2018-09-09T03:56:20.364Z,18.90
2018-09-09T03:58:51.752Z,18.92
2018-09-09T04:01:21.754Z,18.85
2018-09-09T04:03:49.985Z,18.89
2018-09-09T04:06:18.259Z,19.08
2018-09-09T04:11:20.069Z,18.94
2018-09-09T04:16:23.493Z,18.84
2018-09-09T04:18:54.144Z,18.95
2018-09-09T04:21:23.014Z,18.95
2018-09-09T04:23:52.517Z,18.78
2018-09-09T04:26:21.445Z,18.82
2018-09-09T04:28:51.517Z,18.68
2018-09-09T04:31:19.829Z,18.55
2018-09-09T04:33:48.559Z,18.62
2018-09-09T04:36:18.827Z,18.72
2018-09-09T04:38:46.712Z,18.62
2018-09-09T04:41:18.607Z,18.60
2018-09-09T04:43:45.685Z,18.63
2018-09-09T04:46:13.884Z,18.72
2018-09-09T04:48:41.191Z,18.69
2018-09-09T04:51:11.359Z,18.64
2018-09-09T04:53:38.653Z,18.50
2018-09-09T04:56:06.828Z,18.68
2018-09-09T04:58:34.692Z,18.83
2018-09-09T05:01:01.781Z,18.89
2018-09-09T05:03:28.909Z,19.05
2018-09-09T05:05:56.327Z,18.96
2018-09-09T05:08:23.380Z,18.84
2018-09-09T05:10:50.542Z,19.06
2018-09-09T05:13:17.671Z,19.23
2018-09-09T05:15:45.851Z,19.27
2018-09-09T05:18:13.092Z,19.42
2018-09-09T05:20:40.227Z,19.31
2018-09-09T05:23:08.093Z,19.41
2018-09-09T05:25:35.017Z,19.45
2018-09-09T05:28:02.064Z,19.60
2018-09-09T05:30:30.252Z,19.85
2018-09-09T05:32:57.170Z,19.95
2018-09-09T05:35:24.600Z,20.02
2018-09-09T05:37:51.913Z,20.13
2018-09-09T05:40:18.742Z,20.18
2018-09-09T05:42:46.709Z,20.16
2018-09-09T05:50:20.865Z,20.21
2018-09-09T05:52:51.606Z,20.55
2018-09-09T05:55:22.208Z,20.82
2018-09-09T06:02:54.753Z,20.79
2018-09-09T06:05:22.594Z,20.40
2018-09-09T06:07:52.870Z,20.89
2018-09-09T06:10:21.238Z,20.95
2018-09-09T06:12:49.652Z,21.02
2018-09-09T06:17:48.328Z,21.45
2018-09-09T06:20:14.956Z,21.60
2018-09-09T06:22:43.135Z,22.00
2018-09-09T06:25:12.775Z,22.40
2018-09-09T06:27:41.783Z,22.64
2018-09-09T06:30:15.643Z,22.48
2018-09-09T06:35:24.182Z,22.44
2018-09-09T06:37:54.221Z,22.70
2018-09-09T06:40:25.162Z,22.98
2018-09-09T06:42:53.836Z,23.07
2018-09-09T06:45:23.965Z,23.31
2018-09-09T06:47:50.562Z,23.31
2018-09-09T06:50:19.241Z,23.72
2018-09-09T06:52:47.486Z,23.51
2018-09-09T06:55:14.045Z,23.53
2018-09-09T06:57:44.229Z,23.71
2018-09-09T07:02:46.728Z,23.49
2018-09-09T07:05:16.840Z,23.72
2018-09-09T07:07:48.241Z,24.00
2018-09-09T07:10:16.329Z,23.95
2018-09-09T07:12:43.872Z,23.97
2018-09-09T07:15:14.127Z,24.20
2018-09-09T07:17:41.009Z,24.22
2018-09-09T07:20:08.205Z,24.46
2018-09-09T07:25:17.447Z,24.13
2018-09-09T07:27:45.415Z,24.28
2018-09-09T07:30:16.424Z,24.26
2018-09-09T07:32:48.870Z,24.37
2018-09-09T07:35:15.706Z,24.52
2018-09-09T07:37:44.698Z,24.53
2018-09-09T07:40:12.936Z,24.73
2018-09-09T07:45:19.025Z,24.82
2018-09-09T07:58:08.664Z,25.28
2018-09-09T08:08:24.091Z,25.55
2018-09-09T08:10:53.210Z,25.87
2018-09-09T08:15:59.136Z,26.06
2018-09-09T08:23:42.915Z,26.19
2018-09-09T08:26:12.592Z,26.42
2018-09-09T08:33:55.205Z,26.81
2018-09-09T08:36:25.307Z,27.09
2018-09-09T08:46:38.072Z,27.02
2018-09-09T08:49:06.858Z,27.01
2018-09-09T08:56:55.509Z,27.88
2018-09-09T08:59:25.463Z,27.77
2018-09-09T09:01:59.833Z,27.69
2018-09-09T09:04:30.690Z,27.57
2018-09-09T09:06:58.927Z,27.53
2018-09-09T09:12:03.781Z,27.98
2018-09-09T09:17:07.098Z,28.17
2018-09-09T09:19:42.802Z,28.24
2018-09-09T09:29:54.536Z,28.19
2018-09-09T09:35:11.579Z,28.46
2018-09-09T09:37:38.946Z,28.76
2018-09-09T09:40:11.489Z,29.14
2018-09-09T09:42:40.190Z,29.00
2018-09-09T09:45:12.650Z,28.83
2018-09-09T09:47:44.757Z,29.24
2018-09-09T09:50:15.820Z,29.27
2018-09-09T09:52:43.458Z,29.69
2018-09-09T09:55:16.255Z,29.24
2018-09-09T09:57:44.245Z,29.56
2018-09-09T10:00:11.676Z,29.41
2018-09-09T10:02:38.721Z,29.61
2018-09-09T10:05:14.089Z,29.91
2018-09-09T10:07:42.205Z,29.77
2018-09-09T10:10:12.423Z,30.02
2018-09-09T10:12:41.237Z,30.23
2018-09-09T10:15:14.255Z,30.50
2018-09-09T10:17:44.278Z,29.72
2018-09-09T10:20:14.299Z,29.82
2018-09-09T10:27:59.863Z,30.13
2018-09-09T10:33:03.703Z,30.80
2018-09-09T10:38:15.438Z,31.05
2018-09-09T10:51:05.968Z,31.48
2018-09-09T10:56:10.449Z,31.38
2018-09-09T10:58:40.782Z,31.61
2018-09-09T11:01:08.185Z,31.72
2018-09-09T11:03:35.288Z,31.71
2018-09-09T11:06:07.831Z,31.32
2018-09-09T11:08:35.169Z,31.07
2018-09-09T11:11:05.051Z,31.17
2018-09-09T11:16:07.321Z,31.97
2018-09-09T11:18:37.048Z,31.54
2018-09-09T11:28:53.258Z,32.58
2018-09-09T11:31:23.706Z,32.56
2018-09-09T11:33:53.034Z,32.42
2018-09-09T11:38:56.401Z,32.49
2018-09-09T11:46:37.305Z,32.65
2018-09-09T11:49:04.668Z,32.36
2018-09-09T11:51:32.809Z,32.81
2018-09-09T11:54:02.452Z,33.10
2018-09-09T11:56:29.307Z,32.79
2018-09-09T11:58:56.095Z,33.00
2018-09-09T12:01:26.735Z,32.87
2018-09-09T12:06:38.631Z,32.96
2018-09-09T12:09:06.813Z,32.73
2018-09-09T12:14:10.073Z,32.77
2018-09-09T12:16:36.718Z,33.09
2018-09-09T12:24:11.356Z,31.07
2018-09-09T12:32:07.496Z,31.79
2018-09-09T12:34:38.385Z,31.60
2018-09-09T12:37:08.903Z,31.95
2018-09-09T12:39:41.917Z,32.49
2018-09-09T12:47:22.737Z,32.76
2018-09-09T12:55:05.419Z,32.90
2018-09-09T13:00:07.174Z,32.83
2018-09-09T13:07:53.653Z,33.34
2018-09-09T13:12:57.020Z,33.50
2018-09-09T13:15:25.115Z,33.97
2018-09-09T13:18:00.261Z,33.93
2018-09-09T13:20:31.545Z,33.63
2018-09-09T13:25:36.111Z,32.98
2018-09-09T13:30:35.030Z,33.28
2018-09-09T13:35:38.323Z,33.64
2018-09-09T13:43:32.601Z,33.78
2018-09-09T13:46:00.821Z,33.84
2018-09-09T13:48:30.852Z,34.39
2018-09-09T13:51:01.196Z,34.05
2018-09-09T13:56:01.806Z,33.27
2018-09-09T13:58:41.421Z,33.16
2018-09-09T14:03:41.951Z,33.61
2018-09-09T14:06:10.079Z,33.73
2018-09-09T14:08:38.469Z,33.34
2018-09-09T14:11:06.328Z,33.21
2018-09-09T14:13:34.421Z,33.22
2018-09-09T14:16:03.757Z,33.49
2018-09-09T14:18:31.152Z,33.73
2018-09-09T14:20:58.628Z,33.55
2018-09-09T14:23:26.760Z,33.71
2018-09-09T14:25:54.356Z,33.63
2018-09-09T14:28:23.588Z,33.95
2018-09-09T14:30:52.163Z,33.95
2018-09-09T14:33:20.387Z,33.58
2018-09-09T14:35:48.628Z,33.18
2018-09-09T14:38:16.815Z,33.12
2018-09-09T14:43:17.794Z,33.03
2018-09-09T14:45:46.762Z,33.27
2018-09-09T14:48:16.746Z,33.43
2018-09-09T14:50:46.712Z,32.91
2018-09-09T14:53:15.788Z,33.21
2018-09-09T14:55:43.975Z,33.28
2018-09-09T14:58:11.817Z,32.76
2018-09-09T15:00:39.906Z,32.91
2018-09-09T15:03:09.235Z,33.17
2018-09-09T15:05:37.798Z,32.90
2018-09-09T15:08:05.824Z,32.65
2018-09-09T15:10:33.481Z,32.83
2018-09-09T15:13:01.064Z,32.64
2018-09-09T15:15:29.061Z,32.50
2018-09-09T15:17:56.992Z,31.87
2018-09-09T15:20:25.062Z,32.17
2018-09-09T15:22:53.135Z,32.48
2018-09-09T15:25:20.330Z,32.75
2018-09-09T15:27:49.219Z,32.75
2018-09-09T15:30:17.240Z,32.54
2018-09-09T15:32:45.145Z,32.17
2018-09-09T15:35:14.089Z,31.99
2018-09-09T15:37:41.865Z,32.12
2018-09-09T15:40:11.838Z,32.44
2018-09-09T15:42:40.652Z,32.09
2018-09-09T15:45:08.803Z,31.64
2018-09-09T15:47:36.807Z,31.45
2018-09-09T15:50:04.525Z,31.52
2018-09-09T15:52:31.971Z,32.23
2018-09-09T15:55:00.414Z,32.55
2018-09-09T15:57:27.743Z,32.76
2018-09-09T15:59:56.005Z,32.54
2018-09-09T16:02:24.562Z,32.50
2018-09-09T16:04:51.918Z,32.32
2018-09-09T16:07:19.847Z,32.51
2018-09-09T16:09:48.520Z,32.04
2018-09-09T16:12:18.380Z,32.04
2018-09-09T16:14:46.113Z,31.89
2018-09-09T16:17:13.739Z,31.85
2018-09-09T16:19:41.821Z,31.48
2018-09-09T16:22:09.745Z,31.11
2018-09-09T16:24:38.220Z,31.08
2018-09-09T16:27:07.590Z,30.82
2018-09-09T16:29:35.854Z,30.51
2018-09-09T16:32:03.929Z,30.54
2018-09-09T16:34:32.910Z,30.50
2018-09-09T16:37:03.900Z,30.38
2018-09-09T16:44:36.047Z,29.76
2018-09-09T16:47:04.359Z,29.62
2018-09-09T16:49:33.640Z,29.40
2018-09-09T16:52:02.108Z,29.36
2018-09-09T16:54:30.674Z,29.31
2018-09-09T16:56:59.137Z,29.28
2018-09-09T16:59:27.471Z,29.28
2018-09-09T17:01:55.835Z,29.17
2018-09-09T17:04:25.878Z,29.02
2018-09-09T17:06:55.809Z,28.82
2018-09-09T17:09:25.610Z,28.79
2018-09-09T17:11:53.732Z,28.77
2018-09-09T17:14:21.580Z,28.84
2018-09-09T17:16:49.305Z,28.75
2018-09-09T17:19:17.916Z,28.65
2018-09-09T17:21:45.313Z,28.59
2018-09-09T17:24:13.133Z,28.40
2018-09-09T17:26:42.184Z,28.09
2018-09-09T17:29:10.274Z,27.97
2018-09-09T17:31:38.745Z,27.93
2018-09-09T17:34:06.847Z,27.79
2018-09-09T17:36:35.390Z,27.71
2018-09-09T17:39:03.560Z,27.70
2018-09-09T17:41:31.873Z,27.75
2018-09-09T17:44:00.810Z,27.76
2018-09-09T17:46:28.798Z,27.64
2018-09-09T17:48:55.710Z,27.58
2018-09-09T17:51:22.678Z,27.49
2018-09-09T17:53:49.703Z,27.61
2018-09-09T17:56:17.453Z,27.55
2018-09-09T17:58:44.266Z,27.57
2018-09-09T18:01:11.153Z,27.51
2018-09-09T18:03:38.012Z,27.22
2018-09-09T18:06:04.879Z,26.71
2018-09-09T18:08:31.762Z,26.55
2018-09-09T18:10:58.998Z,26.52
2018-09-09T18:13:25.971Z,26.56
2018-09-09T18:15:52.997Z,26.68
2018-09-09T18:18:20.551Z,26.80
2018-09-09T18:20:47.605Z,26.93
2018-09-09T18:23:14.623Z,27.09
2018-09-09T18:25:42.340Z,27.06
2018-09-09T18:28:09.445Z,27.16
2018-09-09T18:30:37.438Z,26.83
2018-09-09T18:33:04.388Z,26.76
2018-09-09T18:35:31.569Z,26.46
2018-09-09T18:37:58.359Z,26.43
2018-09-09T18:40:25.211Z,26.66
2018-09-09T18:42:52.070Z,26.43
2018-09-09T18:47:53.444Z,25.97
2018-09-09T18:50:20.710Z,25.81
2018-09-09T18:52:48.819Z,25.62
2018-09-09T18:55:16.422Z,25.62
2018-09-09T18:57:43.874Z,25.77
2018-09-09T19:00:11.109Z,25.86
2018-09-09T19:02:38.048Z,25.76
2018-09-09T19:05:04.885Z,25.74
2018-09-09T19:07:31.697Z,25.74
2018-09-09T19:09:58.904Z,25.83
2018-09-09T19:12:27.722Z,25.75
2018-09-09T19:14:55.476Z,25.72
2018-09-09T19:17:23.105Z,25.53
2018-09-09T19:19:53.098Z,25.45
2018-09-09T19:22:19.922Z,25.24
2018-09-09T19:24:46.713Z,25.35
2018-09-09T19:27:13.477Z,25.29
2018-09-09T19:29:40.893Z,25.37
2018-09-09T19:32:08.524Z,25.42
2018-09-09T19:34:36.744Z,25.30
2018-09-09T19:37:03.603Z,25.12
2018-09-09T19:39:30.516Z,24.83
2018-09-09T19:41:57.397Z,24.84
2018-09-09T19:44:24.460Z,24.99
2018-09-09T19:46:51.218Z,25.16
2018-09-09T19:49:17.989Z,24.88
2018-09-09T19:51:45.021Z,24.90
2018-09-09T19:54:11.848Z,25.00
2018-09-09T19:56:38.601Z,24.94
2018-09-09T19:59:05.386Z,24.81
2018-09-09T20:01:32.230Z,24.73
2018-09-09T20:03:59.610Z,24.77
2018-09-09T20:06:26.506Z,24.70
2018-09-09T20:08:53.443Z,24.57
2018-09-09T20:11:22.505Z,24.72
2018-09-09T20:13:49.300Z,24.67
2018-09-09T20:16:16.117Z,24.85
2018-09-09T20:18:42.952Z,24.76
2018-09-09T20:21:10.357Z,24.57
2018-09-09T20:23:37.280Z,24.47
2018-09-09T20:26:05.004Z,24.52
2018-09-09T20:28:33.148Z,24.39
2018-09-09T20:31:00.201Z,24.47
2018-09-09T20:33:28.011Z,24.41
2018-09-09T20:35:54.897Z,24.28
2018-09-09T20:38:21.697Z,24.27
2018-09-09T20:40:48.480Z,24.35
2018-09-09T20:43:15.264Z,24.31
2018-09-09T20:45:42.064Z,24.02
2018-09-09T20:48:10.084Z,23.83
2018-09-09T20:50:36.883Z,23.63
2018-09-09T20:53:03.646Z,23.64
2018-09-09T20:55:30.490Z,23.57
2018-09-09T20:57:57.320Z,23.56
2018-09-09T21:00:24.200Z,23.64
2018-09-09T21:02:51.126Z,23.71
2018-09-09T21:05:17.964Z,23.72
2018-09-09T21:07:45.199Z,23.58
2018-09-09T21:10:13.004Z,23.46
2018-09-09T21:12:40.860Z,23.34
2018-09-09T21:15:07.960Z,23.37
2018-09-09T21:17:34.982Z,23.21
2018-09-09T21:20:01.894Z,23.09
2018-09-09T21:22:28.737Z,23.10
2018-09-09T21:24:55.545Z,23.05
2018-09-09T21:27:23.257Z,23.07
2018-09-09T21:29:50.282Z,23.20
2018-09-09T21:32:17.255Z,23.07
2018-09-09T21:34:44.133Z,23.09
2018-09-09T21:37:11.992Z,23.12
2018-09-09T21:39:38.901Z,23.10
2018-09-09T21:42:05.745Z,22.88
2018-09-09T21:44:32.613Z,22.95
2018-09-09T21:47:00.193Z,22.88
2018-09-09T21:49:27.011Z,23.02
2018-09-09T21:51:53.824Z,22.98
2018-09-09T21:54:20.648Z,22.90
2018-09-09T21:56:47.542Z,22.81
2018-09-09T21:59:14.346Z,22.67
2018-09-09T22:01:41.397Z,22.95
2018-09-09T22:04:08.236Z,22.89
2018-09-09T22:06:35.921Z,22.91
2018-09-09T22:09:02.918Z,22.81
2018-09-09T22:11:29.781Z,22.62
2018-09-09T22:13:56.549Z,22.36
2018-09-09T22:16:23.366Z,22.24
2018-09-09T22:18:50.577Z,22.27
2018-09-09T22:21:17.537Z,22.26
2018-09-09T22:23:44.367Z,22.30
2018-09-09T22:26:12.701Z,22.14
2018-09-09T22:28:40.284Z,22.12
2018-09-09T22:31:09.072Z,21.86
2018-09-09T22:33:35.821Z,21.81
2018-09-09T22:36:02.599Z,21.75
2018-09-09T22:38:29.579Z,21.80
2018-09-09T22:40:56.380Z,21.98
2018-09-09T22:43:23.304Z,21.94
2018-09-09T22:45:50.358Z,21.91
2018-09-09T22:48:17.545Z,21.90
2018-09-09T22:50:44.855Z,22.02
2018-09-09T22:53:11.551Z,22.01
2018-09-09T22:55:38.322Z,21.88
2018-09-09T22:58:05.196Z,21.76
2018-09-09T23:00:31.959Z,21.86
2018-09-09T23:02:58.723Z,21.90
2018-09-09T23:05:25.501Z,21.89
2018-09-09T23:07:52.456Z,21.86
2018-09-09T23:10:19.558Z,21.80
2018-09-09T23:12:46.359Z,21.61
2018-09-09T23:15:13.077Z,21.50
2018-09-09T23:17:39.933Z,21.44
2018-09-09T23:20:06.682Z,21.46
2018-09-09T23:22:33.436Z,21.41
2018-09-09T23:25:00.240Z,21.34
2018-09-09T23:27:27.029Z,21.34
2018-09-09T23:29:53.953Z,21.48
2018-09-09T23:32:20.696Z,21.71
2018-09-09T23:34:47.513Z,21.40
2018-09-09T23:37:14.245Z,21.24
2018-09-09T23:39:41.277Z,21.14
2018-09-09T23:42:08.178Z,21.14
2018-09-09T23:44:35.266Z,21.20
2018-09-09T23:47:02.265Z,21.23
2018-09-09T23:49:29.218Z,21.16
2018-09-09T23:51:55.974Z,21.05
2018-09-09T23:54:23.647Z,21.05
2018-09-09T23:56:50.563Z,21.00
2018-09-09T23:59:18.251Z,21.01
